Time;durP1;ratioP1;P1;durP2;ratioP2;P2;SDS_P1;SDS_P2;PMS_P1;PMS_P2;Temp;Humidity;BMP_temperature;BMP_pressure;BME280_temperature;BME280_humidity;BME280_pressure;Samples;Min_cycle;Max_cycle;Signal;HPM_P1;HPM_P2
2020/12/25 00:03:44;;;;;;;13.93;6.97;;;;;;;4.22;100.00;99292.04;10256009;85;21251;-92
2020/12/25 00:18:48;;;;;;;12.78;5.85;;;;;;;4.27;100.00;99315.39;10201274;86;21025;-88
2020/12/25 00:33:54;;;;;;;10.63;4.25;;;;;;;4.30;100.00;99337.70;10248546;86;21133;-87
2020/12/25 00:48:58;;;;;;;10.93;5.92;;;;;;;4.48;100.00;99354.95;10244915;86;21539;-88
2020/12/25 01:04:02;;;;;;;7.67;3.92;;;;;;;4.14;100.00;99365.31;10380995;84;21055;-86
2020/12/25 01:19:07;;;;;;;5.17;2.67;;;;;;;4.37;100.00;99385.64;10016811;88;21211;-86
2020/12/25 01:34:11;;;;;;;5.22;2.40;;;;;;;4.39;100.00;99403.22;10134559;88;21060;-85
2020/12/25 01:49:15;;;;;;;3.60;2.45;;;;;;;4.31;100.00;99428.95;10268976;85;21096;-86
2020/12/25 02:04:19;;;;;;;5.22;2.27;;;;;;;3.44;100.00;99435.75;10202073;86;21073;-89
2020/12/25 02:19:24;;;;;;;4.58;1.70;;;;;;;3.39;100.00;99458.13;10143441;87;21160;-89
2020/12/25 02:34:28;;;;;;;2.80;1.70;;;;;;;3.24;100.00;99474.77;10102615;87;21026;-88
2020/12/25 02:49:32;;;;;;;4.47;1.82;;;;;;;3.09;100.00;99507.30;10145847;86;21022;-84
2020/12/25 03:04:36;;;;;;;13.05;4.53;;;;;;;2.98;100.00;99520.16;10206360;85;21089;-86
2020/12/25 03:19:41;;;;;;;5.50;2.02;;;;;;;2.91;100.00;99543.06;10206043;87;21510;-85
2020/12/25 03:34:45;;;;;;;6.33;2.08;;;;;;;2.85;100.00;99568.11;10206470;87;21208;-85
2020/12/25 03:49:50;;;;;;;5.58;2.35;;;;;;;2.58;100.00;99585.02;10206907;87;21102;-87
2020/12/25 04:04:55;;;;;;;2.75;1.40;;;;;;;2.42;100.00;99601.55;10308196;85;21077;-86
2020/12/25 04:19:59;;;;;;;7.60;2.72;;;;;;;3.27;100.00;99623.61;10232933;86;21060;-83
2020/12/25 04:35:04;;;;;;;3.95;2.00;;;;;;;2.72;100.00;99635.89;10231698;86;21116;-86
2020/12/25 04:50:08;;;;;;;5.08;2.22;;;;;;;2.56;100.00;99651.61;10301376;86;21041;-86
2020/12/25 05:05:15;;;;;;;3.85;2.20;;;;;;;3.05;100.00;99673.46;10050551;88;21056;-85
2020/12/25 05:20:23;;;;;;;6.12;2.98;;;;;;;2.77;100.00;99689.08;10438305;84;21048;-86
2020/12/25 05:35:32;;;;;;;6.87;3.00;;;;;;;2.60;100.00;99688.02;10394570;84;21151;-90
2020/12/25 05:50:38;;;;;;;6.97;2.30;;;;;;;1.33;100.00;99702.24;10050763;88;21112;-88
2020/12/25 06:05:45;;;;;;;5.92;3.55;;;;;;;1.33;100.00;99702.24;10307550;84;21072;-91
2020/12/25 06:20:56;;;;;;;10.85;5.05;;;;;;;1.21;100.00;99732.69;10320244;86;21072;-92
2020/12/25 06:36:00;;;;;;;6.22;3.37;;;;;;;1.05;100.00;99752.12;10312515;86;21076;-85
2020/12/25 06:51:07;;;;;;;7.33;3.20;;;;;;;0.99;100.00;99773.50;9846183;89;21054;-92
2020/12/25 07:06:14;;;;;;;5.60;3.17;;;;;;;0.83;100.00;99810.98;10254625;85;21155;-87
2020/12/25 07:21:19;;;;;;;9.75;6.17;;;;;;;1.60;100.00;99822.59;10278521;86;21093;-89
2020/12/25 07:36:26;;;;;;;147.90;64.42;;;;;;;1.60;100.00;99835.53;10148051;86;21185;-88
2020/12/25 07:51:31;;;;;;;225.90;83.30;;;;;;;0.89;100.00;99856.77;10194125;86;21053;-87
2020/12/25 08:06:37;;;;;;;144.75;69.30;;;;;;;1.05;100.00;99878.70;10186782;86;21053;-89
2020/12/25 08:38:40;;;;;;;82.17;35.95;;;;;;;1.35;100.00;99908.48;10256078;86;20264;-88
2020/12/25 09:09:52;;;;;;;50.70;25.92;;;;;;;1.63;100.00;99954.77;10283268;86;21136;-90
2020/12/25 09:26:30;;;;;;;26.83;15.40;;;;;;;1.88;100.00;99971.50;10212138;86;21207;-86
2020/12/25 09:57:37;;;;;;;19.00;10.67;;;;;;;2.30;100.00;99993.23;9849996;88;21138;-88
2020/12/25 10:28:44;;;;;;;81.30;41.45;;;;;;;2.17;100.00;99999.58;10255746;85;21095;-87
2020/12/25 17:38:40;;;;;;;50.15;23.15;;;;;;;2.49;100.00;100193.67;9935702;87;21162;-85
2020/12/25 17:53:54;;;;;;;28.32;12.85;;;;;;;2.49;100.00;100193.67;9096265;96;21115;-86
2020/12/25 18:09:03;;;;;;;41.10;18.35;;;;;;;2.26;100.00;100196.25;10234136;84;21092;-86
2020/12/25 18:24:11;;;;;;;35.25;17.73;;;;;;;2.33;100.00;100187.22;10272886;84;21240;-85
2020/12/25 18:39:22;;;;;;;29.67;15.60;;;;;;;2.26;100.00;100184.61;10240858;86;21061;-85
2020/12/25 18:54:33;;;;;;;24.20;9.00;;;;;;;2.14;100.00;100205.52;9802855;88;21203;-85
2020/12/25 19:10:17;;;;;;;23.92;9.73;;;;;;;2.14;100.00;100205.52;10176073;86;21080;-85
2020/12/25 19:42:32;;;;;;;41.13;13.03;;;;;;;1.63;100.00;100213.37;9233905;94;21100;-86
2020/12/25 19:57:39;;;;;;;45.00;13.13;;;;;;;1.63;100.00;100213.37;9224568;94;21210;-82
2020/12/25 20:12:45;;;;;;;34.57;11.93;;;;;;;1.59;100.00;100210.57;9647773;88;21112;-84
2020/12/25 20:27:52;;;;;;;48.23;17.27;;;;;;;1.58;100.00;100227.81;10194591;85;21163;-85
2020/12/25 20:42:58;;;;;;;25.27;8.85;;;;;;;1.24;100.00;100218.36;10186945;85;21100;-85
2020/12/25 20:58:05;;;;;;;34.25;10.78;;;;;;;1.05;100.00;100216.70;10224537;85;21029;-86
2020/12/25 21:13:15;;;;;;;37.90;16.17;;;;;;;1.09;100.00;100226.43;10260301;85;21068;-86
2020/12/25 21:28:24;;;;;;;34.23;12.85;;;;;;;1.06;100.00;100225.30;10336127;85;21041;-86
2020/12/25 22:17:39;;;;;;;31.57;12.00;;;;;;;1.02;100.00;100233.66;10054222;87;21087;-85
2020/12/25 22:32:43;;;;;;;21.80;6.95;;;;;;;0.96;100.00;100252.88;9942208;88;21176;-89
2020/12/25 22:47:48;;;;;;;18.82;8.68;;;;;;;0.97;100.00;100245.48;10160372;86;21566;-89
2020/12/25 23:02:52;;;;;;;24.77;8.83;;;;;;;1.07;100.00;100226.52;10239121;86;21657;-85
2020/12/25 23:17:57;;;;;;;15.10;5.45;;;;;;;1.07;100.00;100226.52;10195618;86;21215;-87
2020/12/25 23:33:02;;;;;;;16.35;6.08;;;;;;;1.14;100.00;100239.49;10157219;86;21144;-86
2020/12/25 23:48:06;;;;;;;17.57;6.03;;;;;;;1.01;100.00;100228.09;10131740;86;21060;-90
